createdAt,value
2019-06-10T00:00:13.360Z,20.1
2019-06-10T00:00:45.796Z,20.1
2019-06-10T00:01:08.050Z,20.1
2019-06-10T00:01:46.225Z,20.1
2019-06-10T00:02:07.249Z,20.1
2019-06-10T00:02:46.333Z,20.1
2019-06-10T00:03:07.213Z,20.1
2019-06-10T00:04:08.522Z,20.1
2019-06-10T00:04:47.089Z,20.1
2019-06-10T00:05:07.273Z,20.1
2019-06-10T00:05:47.303Z,20.1
2019-06-10T00:06:07.560Z,20.1
2019-06-10T00:06:47.591Z,20.1
2019-06-10T00:07:27.589Z,20.1
2019-06-10T00:08:07.611Z,20.1
2019-06-10T00:08:58.148Z,20.1
2019-06-10T00:09:28.189Z,20.1
2019-06-10T00:10:16.709Z,20.1
2019-06-10T00:10:57.941Z,20.0
2019-06-10T00:11:37.053Z,20.0
2019-06-10T00:12:20.817Z,20.1
2019-06-10T00:12:47.506Z,20.1
2019-06-10T00:13:17.635Z,20.1
2019-06-10T00:14:18.073Z,20.1
2019-06-10T00:16:08.348Z,20.2
2019-06-10T00:16:50.665Z,20.2
2019-06-10T00:18:30.701Z,20.1
2019-06-10T00:20:11.107Z,20.2
2019-06-10T00:20:51.208Z,20.3
2019-06-10T00:22:11.445Z,20.3
2019-06-10T00:22:40.884Z,20.1
2019-06-10T00:23:41.206Z,20.2
2019-06-10T00:24:21.004Z,20.2
2019-06-10T00:24:52.163Z,20.4
2019-06-10T00:25:51.545Z,20.3
2019-06-10T00:27:11.699Z,20.3
2019-06-10T00:27:42.025Z,20.4
2019-06-10T00:28:52.855Z,20.5
2019-06-10T00:30:53.008Z,20.5
2019-06-10T00:31:23.019Z,20.7
2019-06-10T00:31:53.371Z,20.8
2019-06-10T00:33:24.020Z,20.9
2019-06-10T00:34:44.427Z,20.9
2019-06-10T00:35:44.873Z,21.0
2019-06-10T00:36:14.876Z,21.2
2019-06-10T00:36:54.895Z,21.3
2019-06-10T00:37:24.958Z,21.4
2019-06-10T00:39:51.731Z,21.7
2019-06-10T00:40:41.935Z,22.1
2019-06-10T00:41:13.827Z,22.3
2019-06-10T00:41:52.215Z,22.3
2019-06-10T00:42:22.169Z,22.5
2019-06-10T00:42:51.813Z,22.5
2019-06-10T00:43:52.061Z,22.7
2019-06-10T00:45:16.916Z,22.9
2019-06-10T00:45:42.320Z,22.9
2019-06-10T00:46:22.545Z,23.1
2019-06-10T00:46:43.178Z,23.1
2019-06-10T00:47:23.048Z,23.1
2019-06-10T00:47:43.060Z,23.2
2019-06-10T00:48:43.122Z,23.2
2019-06-10T00:49:23.573Z,23.2
2019-06-10T00:50:43.669Z,23.3
2019-06-10T00:51:23.727Z,23.3
2019-06-10T00:52:45.270Z,23.2
2019-06-10T00:54:15.671Z,23.2
2019-06-10T00:54:54.382Z,23.2
2019-06-10T00:56:44.681Z,23.2
2019-06-10T00:57:14.973Z,23.2
2019-06-10T00:57:55.005Z,23.2
2019-06-10T00:58:45.179Z,23.2
2019-06-10T00:59:25.239Z,23.2
2019-06-10T01:00:45.462Z,23.1
2019-06-10T01:01:15.475Z,23.1
2019-06-10T01:01:55.494Z,23.0
2019-06-10T01:02:26.540Z,22.9
2019-06-10T01:04:06.836Z,22.9
2019-06-10T01:04:46.057Z,22.8
2019-06-10T01:05:16.195Z,22.8
2019-06-10T01:05:56.317Z,22.9
2019-06-10T01:06:26.478Z,22.8
2019-06-10T01:07:06.592Z,22.7
2019-06-10T01:07:46.846Z,22.6
2019-06-10T01:08:46.961Z,22.6
2019-06-10T01:09:26.972Z,22.5
2019-06-10T01:10:16.793Z,22.6
2019-06-10T01:10:46.814Z,22.6
2019-06-10T01:11:20.220Z,22.6
2019-06-10T01:11:57.168Z,22.6
2019-06-10T01:12:37.368Z,22.5
2019-06-10T01:13:37.397Z,22.5
2019-06-10T01:14:18.099Z,22.5
2019-06-10T01:14:58.102Z,22.5
2019-06-10T01:15:18.112Z,22.4
2019-06-10T01:15:58.604Z,22.5
2019-06-10T01:16:18.750Z,22.5
2019-06-10T01:17:01.134Z,22.5
2019-06-10T01:17:21.168Z,22.4
2019-06-10T01:18:01.256Z,22.5
2019-06-10T01:18:41.442Z,22.5
2019-06-10T01:19:21.636Z,22.4
2019-06-10T01:20:01.470Z,22.5
2019-06-10T01:20:21.022Z,22.5
2019-06-10T01:21:01.871Z,22.4
2019-06-10T01:21:41.521Z,22.4
2019-06-10T01:22:21.246Z,22.5
2019-06-10T01:23:01.525Z,22.5
2019-06-10T01:24:01.224Z,22.3
2019-06-10T01:24:40.913Z,22.4
2019-06-10T01:25:21.629Z,22.4
2019-06-10T01:25:51.220Z,22.4
2019-06-10T01:26:31.216Z,22.4
2019-06-10T01:27:01.355Z,22.4
2019-06-10T01:28:41.713Z,22.5
2019-06-10T01:29:21.741Z,22.5
2019-06-10T01:29:51.920Z,22.5
2019-06-10T01:30:32.040Z,22.4
2019-06-10T01:31:02.028Z,22.4
2019-06-10T01:31:42.104Z,22.4
2019-06-10T01:32:22.223Z,22.5
2019-06-10T01:32:52.276Z,22.5
2019-06-10T01:33:52.805Z,22.4
2019-06-10T01:34:32.844Z,22.3
2019-06-10T01:35:06.503Z,22.3
2019-06-10T01:36:55.705Z,22.3
2019-06-10T01:37:26.311Z,22.3
2019-06-10T01:39:51.487Z,22.4
2019-06-10T01:40:20.858Z,22.4
2019-06-10T01:40:50.899Z,22.4
2019-06-10T01:41:30.637Z,22.4
2019-06-10T01:42:00.636Z,22.5
2019-06-10T01:44:21.978Z,22.5
2019-06-10T01:44:50.884Z,22.6
2019-06-10T01:45:31.358Z,22.6
2019-06-10T01:46:01.676Z,22.6
2019-06-10T01:47:21.641Z,22.7
2019-06-10T01:47:51.595Z,22.6
2019-06-10T01:48:52.027Z,22.6
2019-06-10T01:49:32.507Z,22.7
2019-06-10T01:50:02.213Z,22.6
2019-06-10T01:51:22.477Z,22.7
2019-06-10T01:51:52.542Z,22.7
2019-06-10T01:52:34.111Z,22.8
2019-06-10T01:54:53.083Z,22.8
2019-06-10T01:55:32.998Z,22.6
2019-06-10T01:56:03.670Z,22.6
2019-06-10T01:57:23.857Z,22.7
2019-06-10T01:58:03.913Z,22.6
2019-06-10T01:58:54.251Z,22.5
2019-06-10T01:59:34.614Z,22.5
2019-06-10T02:00:09.141Z,22.5
2019-06-10T02:00:34.350Z,22.5
2019-06-10T02:01:04.362Z,22.4
2019-06-10T02:01:34.368Z,22.3
2019-06-10T02:02:04.712Z,22.3
2019-06-10T02:02:35.314Z,22.3
2019-06-10T02:03:04.731Z,22.3
2019-06-10T02:04:05.281Z,22.3
2019-06-10T02:04:35.273Z,22.4
2019-06-10T02:05:05.238Z,22.2
2019-06-10T02:05:35.656Z,22.1
2019-06-10T02:06:55.705Z,22.0
2019-06-10T02:07:25.914Z,22.1
2019-06-10T02:08:05.907Z,22.1
2019-06-10T02:08:56.016Z,22.0
2019-06-10T02:09:36.027Z,22.0
2019-06-10T02:10:22.962Z,21.9
2019-06-10T02:10:51.581Z,22.0
2019-06-10T02:11:31.932Z,21.9
2019-06-10T02:12:52.167Z,21.8
2019-06-10T02:13:52.660Z,21.8
2019-06-10T02:14:33.144Z,21.9
2019-06-10T02:15:03.198Z,21.9
2019-06-10T02:16:24.132Z,21.9
2019-06-10T02:17:03.695Z,21.9
2019-06-10T02:17:33.629Z,21.9
2019-06-10T02:19:53.963Z,21.8
2019-06-10T02:20:33.963Z,21.8
2019-06-10T02:21:04.283Z,21.9
2019-06-10T02:22:24.748Z,21.8
2019-06-10T02:23:04.684Z,21.8
2019-06-10T02:23:54.896Z,21.7
2019-06-10T02:24:35.077Z,21.8
2019-06-10T02:25:05.257Z,21.7
2019-06-10T02:25:36.132Z,21.7
2019-06-10T02:26:16.781Z,21.7
2019-06-10T02:26:55.997Z,21.6
2019-06-10T02:27:26.103Z,21.6
2019-06-10T02:28:26.337Z,21.6
2019-06-10T02:29:06.339Z,21.5
2019-06-10T02:29:36.371Z,21.6
2019-06-10T02:30:28.022Z,21.6
2019-06-10T02:30:56.780Z,21.6
2019-06-10T02:31:32.763Z,21.6
2019-06-10T02:32:07.175Z,21.6
2019-06-10T02:32:37.847Z,21.5
2019-06-10T02:33:37.390Z,21.4
2019-06-10T02:34:22.703Z,21.4
2019-06-10T02:35:03.244Z,21.5
2019-06-10T02:35:38.658Z,21.4
2019-06-10T02:36:07.631Z,21.4
2019-06-10T02:36:37.640Z,21.4
2019-06-10T02:37:22.337Z,21.5
2019-06-10T02:37:58.004Z,21.4
2019-06-10T02:38:48.145Z,21.4
2019-06-10T02:39:34.702Z,21.4
2019-06-10T02:40:53.935Z,21.5
2019-06-10T02:41:36.300Z,21.5
2019-06-10T02:42:04.402Z,21.5
2019-06-10T02:43:37.337Z,21.5
2019-06-10T02:44:04.406Z,21.5
2019-06-10T02:45:54.122Z,21.4
2019-06-10T02:46:36.097Z,21.4
2019-06-10T02:47:04.373Z,21.5
2019-06-10T02:49:45.942Z,21.5
2019-06-10T02:50:08.496Z,21.4
2019-06-10T02:50:36.332Z,21.5
2019-06-10T02:51:05.281Z,21.4
2019-06-10T02:51:35.925Z,21.5
2019-06-10T02:52:05.513Z,21.6
2019-06-10T02:52:38.291Z,21.4
2019-06-10T02:53:36.531Z,21.5
2019-06-10T02:54:16.792Z,21.6
2019-06-10T02:54:55.822Z,21.6
2019-06-10T02:55:35.849Z,21.5
2019-06-10T02:56:05.858Z,21.4
2019-06-10T02:56:45.868Z,21.6
2019-06-10T02:57:18.014Z,21.6
2019-06-10T02:57:46.056Z,21.5
2019-06-10T02:58:38.684Z,21.4
2019-06-10T02:59:17.795Z,21.5
2019-06-10T02:59:46.091Z,21.3
2019-06-10T03:00:22.473Z,21.4
2019-06-10T03:00:48.707Z,21.3
2019-06-10T03:01:16.877Z,21.2
2019-06-10T03:01:46.711Z,21.2
2019-06-10T03:02:18.231Z,21.2
2019-06-10T03:02:46.885Z,21.1
2019-06-10T03:03:43.499Z,21.0
2019-06-10T03:04:18.236Z,21.0
2019-06-10T03:04:46.916Z,21.0
2019-06-10T03:05:19.388Z,21.0
2019-06-10T03:05:47.153Z,20.9
2019-06-10T03:06:19.793Z,21.0
2019-06-10T03:06:47.391Z,20.9
2019-06-10T03:07:30.837Z,20.7
2019-06-10T03:08:37.811Z,20.8
2019-06-10T03:09:18.366Z,20.8
2019-06-10T03:11:03.699Z,20.6
2019-06-10T03:11:44.452Z,20.7
2019-06-10T03:12:12.181Z,20.7
2019-06-10T03:12:42.370Z,20.6
2019-06-10T03:14:32.848Z,20.7
2019-06-10T03:15:44.043Z,20.6
2019-06-10T03:16:14.048Z,20.7
2019-06-10T03:17:34.248Z,20.7
2019-06-10T03:18:04.633Z,20.8
2019-06-10T03:18:44.905Z,20.8
2019-06-10T03:19:15.844Z,20.8
2019-06-10T03:20:58.553Z,20.7
2019-06-10T03:21:38.550Z,20.7
2019-06-10T03:22:19.978Z,20.7
2019-06-10T03:22:48.829Z,20.8
2019-06-10T03:23:28.876Z,20.8
2019-06-10T03:24:13.082Z,20.8
2019-06-10T03:25:13.093Z,20.9
2019-06-10T03:25:52.690Z,20.8
2019-06-10T03:26:38.283Z,20.8
2019-06-10T03:27:18.401Z,20.8
2019-06-10T03:27:48.570Z,20.8
2019-06-10T03:28:28.625Z,20.8
2019-06-10T03:29:08.607Z,20.8
2019-06-10T03:30:25.996Z,20.8
2019-06-10T03:31:46.366Z,20.8
2019-06-10T03:32:23.555Z,20.9
2019-06-10T03:33:04.631Z,20.9
2019-06-10T03:33:47.477Z,20.9
2019-06-10T03:34:14.647Z,20.9
2019-06-10T03:35:28.443Z,20.9
2019-06-10T03:36:08.073Z,21.0
2019-06-10T03:36:47.753Z,21.0
2019-06-10T03:37:22.915Z,20.9
2019-06-10T03:38:03.017Z,20.9
2019-06-10T03:38:43.171Z,20.9
2019-06-10T03:39:23.476Z,21.1
2019-06-10T03:40:24.428Z,20.9
2019-06-10T03:40:52.780Z,21.0
2019-06-10T03:41:23.654Z,20.9
2019-06-10T03:41:53.966Z,20.9
2019-06-10T03:42:25.297Z,20.9
2019-06-10T03:43:04.208Z,21.0
2019-06-10T03:43:47.961Z,20.9
2019-06-10T03:44:16.979Z,21.0
2019-06-10T03:46:06.957Z,21.0
2019-06-10T03:46:52.319Z,20.9
2019-06-10T03:47:21.168Z,21.0
2019-06-10T03:48:45.343Z,21.0
2019-06-10T03:49:26.766Z,21.0
2019-06-10T03:50:27.420Z,21.0
2019-06-10T03:51:06.871Z,21.0
2019-06-10T03:51:46.650Z,20.9
2019-06-10T03:52:17.156Z,21.0
2019-06-10T03:53:42.531Z,21.3
2019-06-10T03:54:24.363Z,21.6
2019-06-10T03:56:07.592Z,21.7
2019-06-10T03:56:47.567Z,21.7
2019-06-10T03:57:28.598Z,21.8
2019-06-10T03:58:08.867Z,21.8
2019-06-10T03:58:38.833Z,21.7
2019-06-10T03:59:19.212Z,21.8
2019-06-10T04:00:27.552Z,21.9
2019-06-10T04:01:52.883Z,21.9
2019-06-10T04:02:25.523Z,21.9
2019-06-10T04:02:55.854Z,21.9
2019-06-10T04:03:28.135Z,21.9
2019-06-10T04:04:09.189Z,22.0
2019-06-10T04:05:03.324Z,21.9
2019-06-10T04:05:44.904Z,21.9
2019-06-10T04:07:14.108Z,21.9
2019-06-10T04:07:42.653Z,21.9
2019-06-10T04:08:25.090Z,21.8
2019-06-10T04:10:46.357Z,21.8
2019-06-10T04:11:28.514Z,21.8
2019-06-10T04:12:52.332Z,21.8
2019-06-10T04:13:34.369Z,21.9
2019-06-10T04:14:05.497Z,21.8
2019-06-10T04:15:09.388Z,21.8
2019-06-10T04:16:33.888Z,21.8
2019-06-10T04:17:14.554Z,21.8
2019-06-10T04:17:57.489Z,21.8
2019-06-10T04:19:14.181Z,21.7
2019-06-10T04:20:17.717Z,21.8
2019-06-10T04:20:49.725Z,21.8
2019-06-10T04:21:22.673Z,21.8
2019-06-10T04:21:53.153Z,21.7
2019-06-10T04:22:35.653Z,21.7
2019-06-10T04:23:06.144Z,21.7
2019-06-10T04:23:47.187Z,21.6
2019-06-10T04:24:17.652Z,21.6
2019-06-10T04:25:28.220Z,21.7
2019-06-10T04:25:56.178Z,21.7
2019-06-10T04:26:43.242Z,21.6
2019-06-10T04:27:25.238Z,21.6
2019-06-10T04:28:08.234Z,21.6
2019-06-10T04:28:52.973Z,21.6
2019-06-10T04:29:52.706Z,21.6
2019-06-10T04:31:14.897Z,21.7
2019-06-10T04:31:53.068Z,21.6
2019-06-10T04:32:37.323Z,21.5
2019-06-10T04:35:14.594Z,21.7
2019-06-10T04:35:57.648Z,21.7
2019-06-10T04:36:42.232Z,21.7
2019-06-10T04:37:23.309Z,21.8
2019-06-10T04:37:52.141Z,21.7
2019-06-10T04:38:42.598Z,21.7
2019-06-10T04:39:24.286Z,21.8
2019-06-10T04:42:33.627Z,21.7
2019-06-10T04:42:48.642Z,21.9
2019-06-10T04:43:23.347Z,21.9
2019-06-10T04:45:14.329Z,22.0
2019-06-10T04:45:46.614Z,22.0
2019-06-10T04:46:18.574Z,22.2
2019-06-10T04:47:02.669Z,22.1
2019-06-10T04:47:34.267Z,22.1
2019-06-10T04:48:20.416Z,22.1
2019-06-10T04:49:12.576Z,22.0
2019-06-10T04:50:24.520Z,22.2
2019-06-10T04:51:05.112Z,22.3
2019-06-10T04:51:33.672Z,22.2
2019-06-10T04:52:21.259Z,22.3
2019-06-10T04:52:58.948Z,22.3
2019-06-10T04:55:26.480Z,22.5
2019-06-10T04:56:12.223Z,22.5
2019-06-10T04:58:16.495Z,22.6
2019-06-10T04:58:56.523Z,22.7
2019-06-10T04:59:56.516Z,22.7
2019-06-10T05:01:16.575Z,22.8
2019-06-10T05:01:56.589Z,22.8
2019-06-10T05:02:27.162Z,22.9
2019-06-10T05:03:46.678Z,22.9
2019-06-10T05:04:16.665Z,22.9
2019-06-10T05:05:27.194Z,23.0
2019-06-10T05:05:56.690Z,23.0
2019-06-10T05:07:16.715Z,23.1
2019-06-10T05:07:56.739Z,23.0
2019-06-10T05:08:36.730Z,23.1
2019-06-10T05:09:16.744Z,23.2
2019-06-10T05:10:27.956Z,23.4
2019-06-10T05:10:56.767Z,23.4
2019-06-10T05:11:36.768Z,23.5
2019-06-10T05:12:16.782Z,23.6
2019-06-10T05:12:56.780Z,23.6
2019-06-10T05:13:36.825Z,23.7
2019-06-10T05:14:16.806Z,23.7
2019-06-10T05:15:28.331Z,23.8
2019-06-10T05:15:56.830Z,23.9
2019-06-10T05:16:36.861Z,24.0
2019-06-10T05:17:16.857Z,24.1
2019-06-10T05:17:56.889Z,24.0
2019-06-10T05:18:36.908Z,24.1
2019-06-10T05:19:16.957Z,24.1
2019-06-10T05:20:16.969Z,24.2
2019-06-10T05:20:58.618Z,24.3
2019-06-10T05:21:28.224Z,24.3
2019-06-10T05:23:17.042Z,24.4
2019-06-10T05:23:57.054Z,24.3
2019-06-10T05:25:47.074Z,24.4
2019-06-10T05:26:17.081Z,24.5
2019-06-10T05:26:57.102Z,24.5
2019-06-10T05:27:28.279Z,24.5
2019-06-10T05:28:47.313Z,24.6
2019-06-10T05:29:57.287Z,24.7
2019-06-10T05:31:17.319Z,24.6
2019-06-10T05:31:47.370Z,24.7
2019-06-10T05:32:27.792Z,24.8
2019-06-10T05:32:57.355Z,24.6
2019-06-10T05:33:28.543Z,24.7
2019-06-10T05:33:57.369Z,24.7
2019-06-10T05:34:57.391Z,24.7
2019-06-10T05:36:17.421Z,24.7
2019-06-10T05:36:57.453Z,24.6
2019-06-10T05:37:28.145Z,24.6
2019-06-10T05:38:47.477Z,24.5
2019-06-10T05:39:47.464Z,24.5
2019-06-10T05:40:27.662Z,24.6
2019-06-10T05:40:57.561Z,24.5
2019-06-10T05:41:28.730Z,24.5
2019-06-10T05:41:57.570Z,24.5
2019-06-10T05:42:28.127Z,24.5
2019-06-10T05:42:57.524Z,24.5
2019-06-10T05:43:27.848Z,24.6
2019-06-10T05:45:17.575Z,24.6
2019-06-10T05:45:57.590Z,24.5
2019-06-10T05:46:28.679Z,24.5
2019-06-10T05:47:47.628Z,24.5
2019-06-10T05:48:17.632Z,24.5
2019-06-10T05:48:57.655Z,24.4
2019-06-10T05:49:47.650Z,24.4
2019-06-10T05:50:28.501Z,24.6
2019-06-10T05:51:47.694Z,24.6
2019-06-10T05:52:28.757Z,24.5
2019-06-10T05:52:57.722Z,24.5
2019-06-10T05:53:28.908Z,24.6
2019-06-10T05:55:17.793Z,24.5
2019-06-10T05:55:57.796Z,24.5
2019-06-10T05:56:27.805Z,24.5
2019-06-10T05:57:50.344Z,24.6
2019-06-10T05:58:32.690Z,24.5
2019-06-10T05:59:02.159Z,24.5
2019-06-10T06:01:22.397Z,24.6
2019-06-10T06:02:02.254Z,24.6
2019-06-10T06:03:22.561Z,24.6
2019-06-10T06:03:52.827Z,24.7
2019-06-10T06:05:02.529Z,24.8
2019-06-10T06:06:22.510Z,24.9
2019-06-10T06:06:53.004Z,24.9
2019-06-10T06:07:31.668Z,24.9
2019-06-10T06:08:05.456Z,24.9
2019-06-10T06:09:50.498Z,25.0
2019-06-10T06:10:33.568Z,25.1
2019-06-10T06:11:02.605Z,25.1
2019-06-10T06:12:22.544Z,25.2
2019-06-10T06:12:52.640Z,25.2
2019-06-10T06:13:32.837Z,25.4
2019-06-10T06:14:02.651Z,25.5
2019-06-10T06:16:22.810Z,25.8
2019-06-10T06:16:53.153Z,25.9
2019-06-10T06:17:32.714Z,25.9
2019-06-10T06:18:07.057Z,26.1
2019-06-10T06:19:52.918Z,26.5
2019-06-10T06:20:31.305Z,26.6
2019-06-10T06:21:19.294Z,26.7
2019-06-10T06:22:22.088Z,26.9
2019-06-10T06:22:52.216Z,26.9
2019-06-10T06:23:32.959Z,27.0
2019-06-10T06:25:53.134Z,27.0
2019-06-10T06:26:23.236Z,27.0
2019-06-10T06:27:02.469Z,26.9
2019-06-10T06:27:42.058Z,26.9
2019-06-10T06:28:22.885Z,26.8
2019-06-10T06:29:02.207Z,26.8
2019-06-10T06:30:22.625Z,26.7
2019-06-10T06:31:03.124Z,26.6
2019-06-10T06:31:32.964Z,26.6
2019-06-10T06:32:33.240Z,26.5
2019-06-10T06:34:52.636Z,26.5
2019-06-10T06:35:33.457Z,26.7
2019-06-10T06:36:03.377Z,26.6
2019-06-10T06:37:23.107Z,26.5
2019-06-10T06:38:02.566Z,26.5
2019-06-10T06:39:52.303Z,26.5
2019-06-10T06:40:34.209Z,26.5
2019-06-10T06:41:03.144Z,26.4
2019-06-10T06:42:22.858Z,26.2
2019-06-10T06:42:52.523Z,26.3
2019-06-10T06:43:35.543Z,26.3
2019-06-10T06:44:02.272Z,26.3
2019-06-10T06:45:53.112Z,26.2
2019-06-10T06:46:33.015Z,26.2
2019-06-10T06:47:52.646Z,26.0
2019-06-10T06:48:35.398Z,26.1
2019-06-10T06:49:02.077Z,25.9
2019-06-10T06:51:03.817Z,25.9
2019-06-10T06:51:43.304Z,26.0
2019-06-10T06:53:16.773Z,26.0
2019-06-10T06:53:39.346Z,26.0
2019-06-10T06:54:03.225Z,26.0
2019-06-10T06:55:55.339Z,26.1
2019-06-10T06:56:35.512Z,26.2
2019-06-10T06:57:52.916Z,26.4
2019-06-10T06:58:34.922Z,26.4
2019-06-10T06:59:02.654Z,26.4
2019-06-10T07:00:35.029Z,26.4
2019-06-10T07:01:00.046Z,26.4
2019-06-10T07:01:36.410Z,26.3
2019-06-10T07:02:12.791Z,26.5
2019-06-10T07:02:52.957Z,26.4
2019-06-10T07:03:35.157Z,26.4
2019-06-10T07:04:02.815Z,26.4
2019-06-10T07:05:12.789Z,26.5
2019-06-10T07:05:53.015Z,26.4
2019-06-10T07:06:34.427Z,26.3
2019-06-10T07:07:02.876Z,26.4
2019-06-10T07:07:43.294Z,26.4
2019-06-10T07:08:22.881Z,26.3
2019-06-10T07:09:03.929Z,26.3
2019-06-10T07:10:03.437Z,26.2
2019-06-10T07:10:34.083Z,26.2
2019-06-10T07:11:13.325Z,26.1
2019-06-10T07:11:53.020Z,26.2
2019-06-10T07:12:33.668Z,26.3
2019-06-10T07:13:13.061Z,26.1
2019-06-10T07:13:53.554Z,26.2
2019-06-10T07:15:04.289Z,26.2
2019-06-10T07:15:34.412Z,26.1
2019-06-10T07:16:13.447Z,26.2
2019-06-10T07:16:53.135Z,26.2
2019-06-10T07:17:34.479Z,26.2
2019-06-10T07:18:13.161Z,26.2
2019-06-10T07:18:53.876Z,26.2
2019-06-10T07:20:03.312Z,26.3
2019-06-10T07:20:36.257Z,26.3
2019-06-10T07:21:03.418Z,26.4
2019-06-10T07:22:02.211Z,26.4
2019-06-10T07:22:23.442Z,26.4
2019-06-10T07:23:03.329Z,26.4
2019-06-10T07:23:35.772Z,26.4
2019-06-10T07:24:03.370Z,26.4
2019-06-10T07:25:23.381Z,26.4
2019-06-10T07:26:03.439Z,26.4
2019-06-10T07:26:35.535Z,26.5
2019-06-10T07:27:03.522Z,26.4
2019-06-10T07:28:23.544Z,26.4
2019-06-10T07:29:03.629Z,26.4
2019-06-10T07:30:11.403Z,26.3
2019-06-10T07:31:26.911Z,26.4
2019-06-10T07:32:03.682Z,26.3
2019-06-10T07:33:23.697Z,26.2
2019-06-10T07:34:03.709Z,26.2
2019-06-10T07:35:03.777Z,26.3
2019-06-10T07:36:23.848Z,26.2
2019-06-10T07:37:03.852Z,26.2
2019-06-10T07:38:54.191Z,26.3
2019-06-10T07:40:03.921Z,26.4
2019-06-10T07:41:03.967Z,26.3
2019-06-10T07:42:04.054Z,26.4
2019-06-10T07:43:04.081Z,26.4
2019-06-10T07:44:04.100Z,26.4
2019-06-10T07:45:24.109Z,26.3
2019-06-10T07:46:04.121Z,26.2
2019-06-10T07:47:04.172Z,26.3
2019-06-10T07:48:04.138Z,26.2
2019-06-10T07:49:04.222Z,26.2
2019-06-10T07:50:34.938Z,26.3
2019-06-10T07:51:04.259Z,26.2
2019-06-10T07:51:54.261Z,26.2
2019-06-10T07:52:54.263Z,26.3
2019-06-10T07:53:54.317Z,26.2
2019-06-10T07:55:24.364Z,26.3
2019-06-10T07:56:04.550Z,26.4
2019-06-10T07:57:04.430Z,26.3
2019-06-10T07:58:04.490Z,26.5
2019-06-10T07:58:54.551Z,26.4
2019-06-10T08:00:24.596Z,26.4
2019-06-10T08:01:04.614Z,26.4
2019-06-10T08:02:04.627Z,26.4
2019-06-10T08:02:54.722Z,26.2
2019-06-10T08:03:54.745Z,26.3
2019-06-10T08:05:24.760Z,26.2
2019-06-10T08:06:04.768Z,26.3
2019-06-10T08:07:04.777Z,26.1
2019-06-10T08:08:04.846Z,26.2
2019-06-10T08:09:04.901Z,26.2
2019-06-10T08:10:35.030Z,26.2
2019-06-10T08:11:04.997Z,26.3
2019-06-10T08:11:55.008Z,26.3
2019-06-10T08:12:55.016Z,26.2
2019-06-10T08:13:55.029Z,26.2
2019-06-10T08:15:25.107Z,26.2
2019-06-10T08:16:05.109Z,26.2
2019-06-10T08:17:05.110Z,26.0
2019-06-10T08:18:05.150Z,26.0
2019-06-10T08:19:25.773Z,25.9
2019-06-10T08:20:35.242Z,25.8
2019-06-10T08:21:37.092Z,25.7
2019-06-10T08:28:35.523Z,25.5
2019-06-10T08:30:15.053Z,25.4
2019-06-10T08:31:36.661Z,25.3
2019-06-10T08:32:36.018Z,25.3
2019-06-10T08:33:36.887Z,25.3
2019-06-10T08:35:05.629Z,25.3
2019-06-10T08:40:55.769Z,25.4
2019-06-10T08:41:55.786Z,25.5
2019-06-10T08:42:55.813Z,25.5
2019-06-10T08:45:05.844Z,25.4
2019-06-10T08:47:37.031Z,25.4
2019-06-10T08:48:36.974Z,25.3
2019-06-10T08:50:05.950Z,25.4
2019-06-10T08:51:37.090Z,25.3
2019-06-10T08:52:50.215Z,25.3
2019-06-10T08:53:37.364Z,25.3
2019-06-10T08:55:06.141Z,25.3
2019-06-10T08:56:38.314Z,25.3
2019-06-10T08:57:38.357Z,25.5
2019-06-10T08:58:38.424Z,25.6
2019-06-10T09:00:11.157Z,25.6
2019-06-10T09:01:37.719Z,25.5
2019-06-10T09:02:38.260Z,25.5
2019-06-10T09:03:38.530Z,25.6
2019-06-10T09:05:06.461Z,25.5
2019-06-10T09:10:16.785Z,25.6
2019-06-10T09:10:56.754Z,25.5
2019-06-10T09:11:49.344Z,25.5
2019-06-10T09:12:36.858Z,25.4
2019-06-10T09:13:36.824Z,25.4
2019-06-10T09:15:06.849Z,25.4
2019-06-10T09:16:01.021Z,25.5
2019-06-10T09:16:48.663Z,25.5
2019-06-10T09:17:48.274Z,25.4
2019-06-10T09:18:49.331Z,25.6
2019-06-10T09:20:06.907Z,25.8
2019-06-10T09:20:51.237Z,25.8
2019-06-10T09:21:36.927Z,25.8
2019-06-10T09:22:36.958Z,25.9
2019-06-10T09:23:36.976Z,25.9
2019-06-10T09:25:06.985Z,26.1
2019-06-10T09:25:49.350Z,26.0
2019-06-10T09:26:48.583Z,26.1
2019-06-10T09:27:49.340Z,26.3
2019-06-10T09:28:37.152Z,26.2
2019-06-10T09:30:07.252Z,26.4
2019-06-10T09:30:52.519Z,26.3
2019-06-10T09:31:49.563Z,26.4
2019-06-10T09:32:51.109Z,26.5
2019-06-10T09:33:50.617Z,26.5
2019-06-10T09:35:17.485Z,26.6
2019-06-10T09:35:57.499Z,26.6
2019-06-10T09:36:50.013Z,26.7
2019-06-10T09:37:49.818Z,26.7
2019-06-10T09:38:48.986Z,26.7
2019-06-10T09:40:17.690Z,26.6
2019-06-10T09:41:01.574Z,26.5
2019-06-10T09:41:54.010Z,26.6
2019-06-10T09:42:49.599Z,26.7
2019-06-10T09:43:50.697Z,26.6
2019-06-10T09:45:57.877Z,26.8
2019-06-10T09:47:53.061Z,26.7
2019-06-10T09:50:59.043Z,26.8
2019-06-10T09:55:58.118Z,26.9
2019-06-10T10:06:11.324Z,27.1
2019-06-10T10:16:02.804Z,28.5
2019-06-10T10:17:04.664Z,28.6
2019-06-10T10:26:03.527Z,29.8
2019-06-10T10:31:03.833Z,30.5
2019-06-10T10:32:03.125Z,30.6
2019-06-10T10:33:03.843Z,31.0
2019-06-10T10:34:03.238Z,31.0
2019-06-10T10:35:33.297Z,31.3
2019-06-10T10:36:03.293Z,31.5
2019-06-10T10:41:04.658Z,31.6
2019-06-10T10:42:03.948Z,31.5
2019-06-10T10:43:22.208Z,31.3
2019-06-10T10:44:03.504Z,31.4
2019-06-10T10:45:33.560Z,31.5
2019-06-10T10:46:05.376Z,31.7
2019-06-10T10:51:03.944Z,32.7
2019-06-10T10:52:03.675Z,32.8
2019-06-10T10:53:03.690Z,32.9
2019-06-10T10:54:20.671Z,32.6
2019-06-10T10:55:33.813Z,32.3
2019-06-10T10:56:03.875Z,32.4
2019-06-10T11:01:04.604Z,31.6
2019-06-10T11:02:03.985Z,31.5
2019-06-10T11:03:04.044Z,31.4
2019-06-10T11:04:04.012Z,31.4
2019-06-10T11:05:34.052Z,31.2
2019-06-10T11:06:04.041Z,31.0
2019-06-10T11:11:05.374Z,31.0
2019-06-10T11:12:04.177Z,31.2
2019-06-10T11:13:04.194Z,31.3
2019-06-10T11:14:04.267Z,31.6
2019-06-10T11:15:34.293Z,31.7
2019-06-10T11:16:04.283Z,31.7
2019-06-10T11:21:04.993Z,31.6
2019-06-10T11:22:04.506Z,31.6
2019-06-10T11:23:04.535Z,31.5
2019-06-10T11:24:04.700Z,31.3
2019-06-10T11:25:34.556Z,31.2
2019-06-10T11:26:04.552Z,30.9
2019-06-10T11:31:04.776Z,30.2
2019-06-10T11:32:05.002Z,30.0
2019-06-10T11:33:04.776Z,29.8
2019-06-10T11:34:04.835Z,29.6
2019-06-10T11:35:34.881Z,29.5
2019-06-10T11:36:04.948Z,29.4
2019-06-10T11:41:04.950Z,28.9
2019-06-10T11:42:04.994Z,28.9
2019-06-10T11:43:05.057Z,29.0
2019-06-10T11:44:05.040Z,29.1
2019-06-10T11:45:35.108Z,29.1
2019-06-10T11:46:35.141Z,29.2
2019-06-10T11:47:35.167Z,29.3
2019-06-10T11:48:35.237Z,29.4
2019-06-10T11:49:45.228Z,29.4
2019-06-10T11:50:35.232Z,29.5
2019-06-10T11:51:35.249Z,29.1
2019-06-10T11:52:35.390Z,29.0
2019-06-10T11:53:35.366Z,29.1
2019-06-10T11:55:14.980Z,29.2
2019-06-10T11:55:45.453Z,29.2
2019-06-10T11:56:35.596Z,29.2
2019-06-10T11:57:35.490Z,29.2
2019-06-10T11:58:35.515Z,29.2
2019-06-10T12:00:13.842Z,29.1
2019-06-10T12:00:45.547Z,29.4
2019-06-10T12:01:35.584Z,29.3
2019-06-10T12:02:35.594Z,29.6
2019-06-10T12:03:35.655Z,29.6
2019-06-10T12:05:05.711Z,29.6
2019-06-10T12:05:45.769Z,29.6
2019-06-10T12:06:35.759Z,29.7
2019-06-10T12:07:35.923Z,30.1
2019-06-10T12:08:35.852Z,30.1
2019-06-10T12:10:05.900Z,30.3
2019-06-10T12:10:45.936Z,30.4
2019-06-10T12:11:35.937Z,30.4
2019-06-10T12:12:35.973Z,30.6
2019-06-10T12:13:36.015Z,30.5
2019-06-10T12:15:06.048Z,30.2
2019-06-10T12:16:20.568Z,30.2
2019-06-10T12:17:17.309Z,30.0
2019-06-10T12:17:46.779Z,29.9
2019-06-10T12:18:36.085Z,29.6
2019-06-10T12:20:06.084Z,29.6
2019-06-10T12:20:46.099Z,29.5
2019-06-10T12:21:36.102Z,29.4
2019-06-10T12:22:36.127Z,29.5
2019-06-10T12:23:36.126Z,29.5
2019-06-10T12:25:28.256Z,29.4
2019-06-10T12:25:47.961Z,29.5
2019-06-10T12:26:36.179Z,29.4
2019-06-10T12:27:36.308Z,29.4
2019-06-10T12:28:36.303Z,29.3
2019-06-10T12:30:06.348Z,29.0
2019-06-10T12:30:46.331Z,29.0
2019-06-10T12:31:36.350Z,29.0
2019-06-10T12:32:36.433Z,29.0
2019-06-10T12:33:36.437Z,29.1
2019-06-10T12:35:06.515Z,29.1
2019-06-10T12:35:46.529Z,29.2
2019-06-10T12:36:36.596Z,29.3
2019-06-10T12:37:36.600Z,29.3
2019-06-10T12:38:36.633Z,29.4
2019-06-10T12:40:06.649Z,29.6
2019-06-10T12:40:46.662Z,29.6
2019-06-10T12:41:36.684Z,29.8
2019-06-10T12:42:36.687Z,30.0
2019-06-10T12:43:36.708Z,30.2
2019-06-10T12:45:08.485Z,30.2
2019-06-10T12:45:46.836Z,30.2
2019-06-10T12:46:37.888Z,30.1
2019-06-10T12:47:36.859Z,30.1
2019-06-10T12:48:36.955Z,30.0
2019-06-10T12:50:06.974Z,30.1
2019-06-10T12:50:47.863Z,30.1
2019-06-10T12:51:37.006Z,30.1
2019-06-10T12:52:37.015Z,30.1
2019-06-10T12:53:37.050Z,30.2
2019-06-10T12:55:07.112Z,30.3
2019-06-10T12:55:47.247Z,30.2
2019-06-10T12:56:37.101Z,30.5
2019-06-10T12:57:42.788Z,30.6
2019-06-10T12:58:43.127Z,30.6
2019-06-10T13:00:20.161Z,30.7
2019-06-10T13:46:05.450Z,30.2
2019-06-10T13:47:06.836Z,30.1
2019-06-10T13:48:05.805Z,30.1
2019-06-10T13:49:33.184Z,30.1
2019-06-10T13:50:33.076Z,30.2